createdAt,value
2017-03-26T00:00:52.179Z,59.49
2017-03-26T00:01:52.237Z,59.87
2017-03-26T00:02:52.246Z,59.49
2017-03-26T00:03:52.587Z,59.68
2017-03-26T00:04:52.319Z,60.06
2017-03-26T00:05:52.353Z,59.87
2017-03-26T00:06:52.382Z,59.68
2017-03-26T00:07:52.421Z,59.87
2017-03-26T00:08:52.456Z,59.77
2017-03-26T00:09:52.485Z,59.77
2017-03-26T00:10:52.515Z,59.87
2017-03-26T00:11:52.552Z,59.49
2017-03-26T00:12:52.590Z,59.77
2017-03-26T00:13:52.620Z,59.87
2017-03-26T00:14:52.655Z,59.87
2017-03-26T00:15:52.690Z,59.96
2017-03-26T00:16:52.722Z,60.72
2017-03-26T00:17:52.755Z,60.53
2017-03-26T00:18:52.797Z,60.53
2017-03-26T00:19:52.834Z,60.35
2017-03-26T00:20:52.862Z,60.63
2017-03-26T00:21:52.897Z,60.44
2017-03-26T00:22:52.929Z,60.63
2017-03-26T00:23:52.965Z,60.91
2017-03-26T00:24:52.998Z,60.91
2017-03-26T00:25:53.045Z,60.72
2017-03-26T00:26:53.069Z,61.01
2017-03-26T00:27:53.102Z,61.2
2017-03-26T00:28:53.131Z,61.1
2017-03-26T00:29:53.168Z,61.01
2017-03-26T00:30:53.224Z,61.2
2017-03-26T00:31:53.237Z,60.82
2017-03-26T00:32:53.269Z,61.29
2017-03-26T00:33:53.311Z,61.1
2017-03-26T00:34:53.337Z,61.2
2017-03-26T00:35:53.371Z,61.77
2017-03-26T00:36:53.401Z,61.45
2017-03-26T00:37:53.440Z,61.58
2017-03-26T00:38:53.477Z,61.65
2017-03-26T00:39:53.504Z,61.68
2017-03-26T00:40:53.542Z,62.12
2017-03-26T00:41:53.569Z,61.83
2017-03-26T00:42:53.606Z,62.05
2017-03-26T00:43:53.641Z,61.87
2017-03-26T00:44:53.683Z,61.45
2017-03-26T00:45:53.709Z,61.74
2017-03-26T00:46:53.739Z,61.74
2017-03-26T00:47:53.782Z,61.83
2017-03-26T00:48:53.811Z,62.78
2017-03-26T00:49:54.145Z,62.69
2017-03-26T00:50:53.878Z,62.69
2017-03-26T00:51:53.908Z,62.12
2017-03-26T00:52:54.246Z,62.4
2017-03-26T00:53:53.978Z,62.5
2017-03-26T00:54:54.012Z,62.69
2017-03-26T00:55:54.046Z,62.59
2017-03-26T00:56:54.077Z,62.4
2017-03-26T00:57:54.417Z,63.17
2017-03-26T00:58:54.151Z,62.88
2017-03-26T00:59:54.497Z,63.17
2017-03-26T01:00:54.214Z,63.45
2017-03-26T01:01:54.565Z,62.97
2017-03-26T01:02:54.285Z,62.78
2017-03-26T01:03:54.316Z,63.07
2017-03-26T01:04:54.351Z,63.17
2017-03-26T01:05:54.380Z,62.69
2017-03-26T01:06:54.411Z,63.45
2017-03-26T01:07:54.450Z,62.59
2017-03-26T01:08:54.486Z,63.54
2017-03-26T01:09:54.524Z,64.11
2017-03-26T01:10:54.553Z,63.17
2017-03-26T01:11:54.583Z,63.17
2017-03-26T01:12:54.619Z,63.17
2017-03-26T01:13:54.659Z,63.54
2017-03-26T01:14:54.685Z,63.45
2017-03-26T01:15:54.725Z,63.83
2017-03-26T01:16:54.750Z,63.17
2017-03-26T01:17:54.784Z,63.35
2017-03-26T01:18:54.815Z,63.35
2017-03-26T01:19:54.853Z,63.07
2017-03-26T01:20:54.886Z,63.54
2017-03-26T01:21:54.919Z,64.02
2017-03-26T01:22:54.948Z,64.02
2017-03-26T01:23:54.988Z,63.83
2017-03-26T01:24:55.323Z,63.83
2017-03-26T01:25:55.356Z,64.02
2017-03-26T01:26:55.082Z,64.3
2017-03-26T01:27:55.118Z,64.11
2017-03-26T01:28:55.157Z,64.4
2017-03-26T01:29:55.186Z,64.02
2017-03-26T01:30:55.217Z,64.3
2017-03-26T01:31:55.256Z,64.3
2017-03-26T01:32:55.289Z,64.4
2017-03-26T01:33:55.320Z,64.49
2017-03-26T01:34:55.357Z,64.21
2017-03-26T01:35:55.384Z,64.3
2017-03-26T01:36:55.425Z,64.59
2017-03-26T01:37:55.458Z,64.3
2017-03-26T01:38:55.486Z,64.3
2017-03-26T01:39:55.826Z,64.59
2017-03-26T01:40:55.551Z,64.49
2017-03-26T01:41:55.587Z,65.06
2017-03-26T01:42:55.621Z,64.87
2017-03-26T01:43:55.658Z,64.69
2017-03-26T01:44:55.686Z,64.97
2017-03-26T01:45:55.718Z,64.78
2017-03-26T01:46:55.754Z,64.78
2017-03-26T01:47:55.785Z,65.25
2017-03-26T01:48:55.840Z,64.84
2017-03-26T01:49:56.155Z,65.44
2017-03-26T01:50:55.886Z,65.03
2017-03-26T01:51:55.917Z,65.16
2017-03-26T01:52:55.953Z,65.16
2017-03-26T01:53:55.989Z,65.44
2017-03-26T01:54:56.323Z,65.35
2017-03-26T01:55:56.055Z,65.5
2017-03-26T01:56:56.308Z,65.31
2017-03-26T01:57:56.423Z,65.12
2017-03-26T01:58:56.158Z,64.94
2017-03-26T01:59:56.187Z,65.31
2017-03-26T02:00:56.222Z,65.5
2017-03-26T02:01:56.255Z,65.5
2017-03-26T02:02:56.290Z,65.5
2017-03-26T02:03:56.319Z,65.22
2017-03-26T02:04:56.353Z,65.79
2017-03-26T02:05:56.387Z,65.79
2017-03-26T02:06:56.419Z,65.79
2017-03-26T02:07:56.453Z,65.6
2017-03-26T02:08:56.489Z,65.6
2017-03-26T02:09:56.564Z,66.17
2017-03-26T02:10:56.547Z,65.98
2017-03-26T02:11:56.595Z,66.08
2017-03-26T02:12:56.637Z,66.17
2017-03-26T02:13:56.649Z,66.08
2017-03-26T02:14:56.688Z,65.98
2017-03-26T02:15:56.721Z,66.55
2017-03-26T02:16:56.745Z,66.36
2017-03-26T02:17:56.806Z,66.36
2017-03-26T02:18:56.826Z,65.98
2017-03-26T02:19:56.853Z,66.08
2017-03-26T02:20:56.889Z,66.36
2017-03-26T02:21:56.924Z,66.64
2017-03-26T02:22:56.961Z,66.27
2017-03-26T02:23:56.981Z,66.74
2017-03-26T02:24:57.319Z,66.27
2017-03-26T02:25:57.105Z,66.36
2017-03-26T02:26:57.089Z,66.27
2017-03-26T02:27:57.134Z,66.27
2017-03-26T02:28:57.167Z,66.36
2017-03-26T02:29:57.181Z,66.74
2017-03-26T02:30:57.214Z,66.46
2017-03-26T02:31:57.242Z,66.55
2017-03-26T02:32:57.277Z,66.74
2017-03-26T02:33:57.310Z,66.83
2017-03-26T02:34:57.652Z,66.83
2017-03-26T02:35:57.375Z,66.55
2017-03-26T02:36:57.410Z,66.64
2017-03-26T02:37:57.445Z,66.93
2017-03-26T02:38:57.479Z,67.31
2017-03-26T02:39:57.513Z,67.21
2017-03-26T02:40:57.541Z,67.31
2017-03-26T02:41:57.590Z,66.93
2017-03-26T02:42:57.606Z,66.93
2017-03-26T02:43:57.639Z,67.31
2017-03-26T02:44:57.679Z,67.02
2017-03-26T02:45:57.705Z,67.31
2017-03-26T02:46:57.740Z,67.12
2017-03-26T02:47:57.774Z,67.12
2017-03-26T02:48:58.113Z,67.5
2017-03-26T02:49:57.854Z,67.65
2017-03-26T02:50:57.870Z,67.79
2017-03-26T02:51:57.916Z,67.79
2017-03-26T02:52:57.940Z,67.69
2017-03-26T02:53:58.276Z,67.5
2017-03-26T02:54:58.001Z,67.46
2017-03-26T02:55:58.037Z,67.5
2017-03-26T02:56:58.067Z,67.97
2017-03-26T02:57:58.406Z,67.85
2017-03-26T02:58:58.135Z,67.85
2017-03-26T02:59:58.170Z,67.94
2017-03-26T03:00:58.198Z,67.75
2017-03-26T03:01:58.231Z,68.13
2017-03-26T03:02:58.267Z,67.94
2017-03-26T03:03:58.298Z,67.65
2017-03-26T03:04:58.632Z,67.85
2017-03-26T03:05:58.671Z,68.13
2017-03-26T03:06:58.396Z,68.04
2017-03-26T03:07:58.430Z,68.32
2017-03-26T03:08:58.464Z,68.04
2017-03-26T03:09:58.498Z,68.04
2017-03-26T03:10:58.526Z,68.32
2017-03-26T03:11:58.561Z,67.94
2017-03-26T03:12:58.591Z,67.75
2017-03-26T03:13:58.624Z,67.85
2017-03-26T03:14:58.658Z,67.65
2017-03-26T03:15:58.687Z,67.94
2017-03-26T03:16:58.721Z,67.56
2017-03-26T03:17:58.760Z,67.85
2017-03-26T03:18:58.806Z,67.85
2017-03-26T03:19:58.823Z,67.85
2017-03-26T03:20:58.872Z,68.04
2017-03-26T03:21:58.904Z,67.85
2017-03-26T03:22:58.920Z,67.65
2017-03-26T03:23:59.256Z,68.41
2017-03-26T03:24:58.988Z,67.56
2017-03-26T03:25:59.030Z,68.04
2017-03-26T03:26:59.049Z,68.13
2017-03-26T03:27:59.084Z,67.94
2017-03-26T03:28:59.115Z,68.32
2017-03-26T03:29:59.147Z,68.6
2017-03-26T03:30:59.187Z,68.04
2017-03-26T03:31:59.217Z,68.41
2017-03-26T03:32:59.249Z,67.94
2017-03-26T03:33:59.282Z,68.32
2017-03-26T03:34:59.310Z,68.04
2017-03-26T03:35:59.345Z,68.32
2017-03-26T03:36:59.376Z,68.41
2017-03-26T03:37:59.407Z,68.32
2017-03-26T03:38:59.444Z,68.6
2017-03-26T03:39:59.474Z,68.32
2017-03-26T03:40:59.509Z,68.32
2017-03-26T03:41:59.532Z,68.04
2017-03-26T03:42:59.571Z,68.6
2017-03-26T03:43:59.603Z,68.13
2017-03-26T03:44:59.635Z,68.98
2017-03-26T03:45:59.672Z,68.41
2017-03-26T03:46:59.700Z,68.57
2017-03-26T03:47:59.734Z,68.6
2017-03-26T03:48:59.765Z,68.79
2017-03-26T03:49:59.795Z,68.79
2017-03-26T03:50:59.829Z,68.6
2017-03-26T03:51:59.863Z,68.79
2017-03-26T03:52:59.893Z,68.41
2017-03-26T03:53:59.935Z,68.79
2017-03-26T03:54:59.975Z,68.79
2017-03-26T03:55:59.997Z,69.23
2017-03-26T03:57:00.023Z,69.17
2017-03-26T03:58:00.058Z,69.13
2017-03-26T03:59:00.090Z,69.17
2017-03-26T04:00:00.129Z,69.04
2017-03-26T04:01:00.151Z,68.95
2017-03-26T04:02:00.199Z,68.7
2017-03-26T04:03:00.218Z,69.08
2017-03-26T04:04:00.253Z,69.27
2017-03-26T04:05:00.304Z,68.95
2017-03-26T04:06:00.315Z,69.08
2017-03-26T04:07:00.348Z,69.33
2017-03-26T04:08:00.399Z,69.33
2017-03-26T04:09:00.410Z,69.74
2017-03-26T04:10:00.443Z,69.71
2017-03-26T04:11:00.478Z,69.61
2017-03-26T04:12:00.510Z,69.93
2017-03-26T04:13:00.546Z,69.9
2017-03-26T04:14:00.572Z,69.52
2017-03-26T04:15:00.610Z,69.74
2017-03-26T04:16:00.637Z,69.9
2017-03-26T04:17:00.671Z,69.8
2017-03-26T04:18:00.704Z,69.71
2017-03-26T04:19:00.734Z,69.8
2017-03-26T04:20:00.770Z,69.8
2017-03-26T04:21:00.801Z,69.8
2017-03-26T04:22:00.830Z,69.99
2017-03-26T04:23:00.865Z,69.9
2017-03-26T04:24:01.198Z,69.8
2017-03-26T04:25:00.928Z,69.61
2017-03-26T04:26:00.958Z,69.8
2017-03-26T04:27:00.995Z,69.61
2017-03-26T04:28:01.028Z,69.61
2017-03-26T04:29:01.068Z,69.8
2017-03-26T04:30:01.397Z,69.46
2017-03-26T04:31:01.136Z,69.46
2017-03-26T04:32:01.168Z,69.42
2017-03-26T04:33:01.187Z,69.61
2017-03-26T04:34:01.222Z,69.52
2017-03-26T04:35:01.250Z,69.9
2017-03-26T04:36:01.282Z,69.61
2017-03-26T04:37:01.317Z,69.9
2017-03-26T04:38:01.656Z,69.8
2017-03-26T04:39:01.383Z,69.8
2017-03-26T04:40:01.418Z,69.9
2017-03-26T04:41:01.444Z,69.8
2017-03-26T04:42:01.477Z,69.71
2017-03-26T04:43:01.509Z,71.03
2017-03-26T04:44:01.863Z,70.28
2017-03-26T04:45:01.577Z,70.65
2017-03-26T04:46:01.606Z,70.37
2017-03-26T04:47:01.638Z,70.47
2017-03-26T04:48:01.668Z,70.65
2017-03-26T04:49:01.723Z,70.65
2017-03-26T04:50:01.739Z,70.56
2017-03-26T04:51:01.770Z,70.47
2017-03-26T04:52:01.800Z,70.37
2017-03-26T04:53:01.834Z,70.37
2017-03-26T04:54:01.868Z,70.47
2017-03-26T04:55:01.896Z,70.47
2017-03-26T04:56:01.926Z,70.37
2017-03-26T04:57:01.965Z,70.28
2017-03-26T04:58:02.020Z,70.18
2017-03-26T04:59:02.021Z,70.47
2017-03-26T05:00:02.058Z,70.28
2017-03-26T05:01:02.090Z,70.47
2017-03-26T05:02:02.123Z,70.56
2017-03-26T05:03:02.157Z,70.94
2017-03-26T05:04:02.184Z,70.84
2017-03-26T05:05:02.225Z,70.84
2017-03-26T05:06:02.251Z,71.13
2017-03-26T05:07:02.286Z,70.84
2017-03-26T05:08:02.312Z,70.94
2017-03-26T05:09:02.347Z,70.94
2017-03-26T05:10:02.378Z,70.94
2017-03-26T05:11:02.413Z,70.94
2017-03-26T05:12:02.443Z,70.65
2017-03-26T05:13:02.476Z,70.84
2017-03-26T05:14:02.508Z,70.94
2017-03-26T05:15:02.541Z,70.75
2017-03-26T05:16:02.572Z,70.78
2017-03-26T05:17:02.610Z,70.88
2017-03-26T05:18:02.648Z,70.94
2017-03-26T05:19:02.666Z,70.98
2017-03-26T05:20:02.703Z,71.07
2017-03-26T05:21:02.737Z,70.78
2017-03-26T05:22:02.771Z,70.78
2017-03-26T05:23:02.818Z,70.88
2017-03-26T05:24:02.882Z,70.98
2017-03-26T05:25:02.864Z,71.17
2017-03-26T05:26:02.900Z,70.78
2017-03-26T05:27:02.929Z,70.98
2017-03-26T05:28:02.967Z,71.07
2017-03-26T05:29:02.996Z,71.07
2017-03-26T05:30:03.027Z,70.5
2017-03-26T05:31:03.059Z,70.31
2017-03-26T05:32:03.096Z,70.5
2017-03-26T05:33:03.127Z,70.5
2017-03-26T05:34:03.161Z,70.59
2017-03-26T05:35:03.507Z,70.69
2017-03-26T05:36:03.539Z,70.78
2017-03-26T05:37:03.259Z,70.31
2017-03-26T05:38:03.296Z,70.31
2017-03-26T05:39:03.631Z,70.31
2017-03-26T05:40:03.360Z,70.63
2017-03-26T05:41:03.391Z,70.54
2017-03-26T05:42:03.428Z,70.63
2017-03-26T05:43:03.457Z,70.73
2017-03-26T05:44:03.492Z,70.54
2017-03-26T05:45:03.826Z,70.06
2017-03-26T05:46:03.554Z,69.49
2017-03-26T05:47:03.587Z,70.06
2017-03-26T05:48:03.621Z,70.06
2017-03-26T05:49:03.656Z,69.68
2017-03-26T05:50:03.989Z,70.06
2017-03-26T05:51:03.725Z,69.4
2017-03-26T05:52:04.062Z,69.49
2017-03-26T05:53:03.790Z,69.21
2017-03-26T05:54:03.819Z,69.11
2017-03-26T05:55:03.858Z,69.21
2017-03-26T05:56:03.888Z,68.64
2017-03-26T05:57:03.940Z,68.54
2017-03-26T05:58:04.260Z,68.67
2017-03-26T05:59:03.990Z,68.77
2017-03-26T06:00:04.022Z,68.86
2017-03-26T06:01:04.059Z,69.43
2017-03-26T06:02:04.088Z,70
2017-03-26T06:03:04.127Z,70.32
2017-03-26T06:04:04.155Z,70.51
2017-03-26T06:05:04.498Z,70.45
2017-03-26T06:06:04.223Z,69.54
2017-03-26T06:07:04.261Z,68.24
2017-03-26T06:08:04.299Z,67.99
2017-03-26T06:09:04.328Z,67.07
2017-03-26T06:10:04.367Z,66.44
2017-03-26T06:11:04.398Z,66.15
2017-03-26T06:12:04.743Z,65.23
2017-03-26T06:13:04.471Z,64.59
2017-03-26T06:14:04.512Z,62.59
2017-03-26T06:15:04.541Z,62.05
2017-03-26T06:16:04.580Z,61
2017-03-26T06:17:04.614Z,60.84
2017-03-26T06:18:04.655Z,60.93
2017-03-26T06:19:04.696Z,60.87
2017-03-26T06:20:04.724Z,59.44
2017-03-26T06:21:04.764Z,58.8
2017-03-26T06:22:04.802Z,58.8
2017-03-26T06:23:04.834Z,58.25
2017-03-26T06:24:04.878Z,57.48
2017-03-26T06:25:04.913Z,56.46
2017-03-26T06:26:04.962Z,55.98
2017-03-26T06:27:04.994Z,55.79
2017-03-26T06:28:05.024Z,56.01
2017-03-26T06:29:05.070Z,55.44
2017-03-26T06:30:05.106Z,54.96
2017-03-26T06:31:05.139Z,54.7
2017-03-26T06:32:05.179Z,53.58
2017-03-26T06:33:05.217Z,52.55
2017-03-26T06:34:05.261Z,52.28
2017-03-26T06:35:05.296Z,51.04
2017-03-26T06:36:05.340Z,51.54
2017-03-26T06:37:05.379Z,50.68
2017-03-26T06:38:05.413Z,50.51
2017-03-26T06:39:05.457Z,49.77
2017-03-26T06:40:05.498Z,48.93
2017-03-26T06:41:05.549Z,47.97
2017-03-26T06:42:05.576Z,46.55
2017-03-26T06:43:05.615Z,46.38
2017-03-26T06:44:05.960Z,45.9
2017-03-26T06:45:05.695Z,44.96
2017-03-26T06:46:05.746Z,44.59
2017-03-26T06:47:05.778Z,43.92
2017-03-26T06:48:06.126Z,43.05
2017-03-26T06:49:05.867Z,42.59
2017-03-26T06:50:06.207Z,42.03
2017-03-26T06:51:05.948Z,41.84
2017-03-26T06:52:05.984Z,40.9
2017-03-26T06:53:06.047Z,40.51
2017-03-26T06:54:06.068Z,39.37
2017-03-26T06:55:06.107Z,38.71
2017-03-26T06:56:06.192Z,38.62
2017-03-26T06:57:06.194Z,38.35
2017-03-26T06:58:06.239Z,37.77
2017-03-26T06:59:06.280Z,36.92
2017-03-26T07:00:06.342Z,36.55
2017-03-26T07:01:06.365Z,36.07
2017-03-26T07:02:06.410Z,35.39
2017-03-26T07:03:06.459Z,34.83
2017-03-26T07:04:06.494Z,34.44
2017-03-26T07:05:06.549Z,32.99
2017-03-26T07:06:06.584Z,34.05
2017-03-26T07:07:06.625Z,33.29
2017-03-26T07:08:06.671Z,32.52
2017-03-26T07:09:06.712Z,31.46
2017-03-26T07:10:06.758Z,31.76
2017-03-26T07:11:06.798Z,31.18
2017-03-26T07:12:06.857Z,31.09
2017-03-26T07:13:06.890Z,30.31
2017-03-26T07:14:06.934Z,30.41
2017-03-26T07:15:06.981Z,29.91
2017-03-26T07:16:07.064Z,30
2017-03-26T07:17:07.066Z,29.52
2017-03-26T07:18:07.112Z,28.65
2017-03-26T07:19:07.466Z,28.28
2017-03-26T07:20:07.199Z,28.28
2017-03-26T07:21:07.247Z,28.26
2017-03-26T07:22:07.288Z,28.07
2017-03-26T07:23:07.345Z,28.17
2017-03-26T07:24:07.383Z,27.78
2017-03-26T07:25:07.424Z,27.31
2017-03-26T07:26:07.486Z,27.11
2017-03-26T07:27:07.512Z,26.92
2017-03-26T07:28:07.556Z,26.35
2017-03-26T07:29:07.606Z,25.87
2017-03-26T07:30:07.645Z,25.49
2017-03-26T07:31:07.715Z,25.89
2017-03-26T07:32:07.737Z,25.7
2017-03-26T07:33:07.775Z,24.92
2017-03-26T07:34:07.829Z,24.65
2017-03-26T07:35:07.869Z,24.65
2017-03-26T07:36:07.920Z,23.79
2017-03-26T07:37:07.964Z,23.58
2017-03-26T07:38:08.006Z,24.15
2017-03-26T07:39:08.047Z,23.85
2017-03-26T07:40:08.095Z,23.65
2017-03-26T07:41:08.146Z,23.82
2017-03-26T07:42:08.189Z,23.91
2017-03-26T07:43:08.233Z,24.17
2017-03-26T07:44:08.278Z,25.03
2017-03-26T07:45:08.336Z,25.5
2017-03-26T07:46:08.370Z,25.51
2017-03-26T07:47:08.641Z,25.14
2017-03-26T07:48:08.464Z,24.95
2017-03-26T07:49:08.814Z,24.46
2017-03-26T07:50:08.548Z,24.76
2017-03-26T07:51:08.595Z,24.56
2017-03-26T07:52:08.643Z,24.67
2017-03-26T07:53:08.691Z,24.48
2017-03-26T07:54:08.734Z,24.29
2017-03-26T07:55:08.779Z,24.12
2017-03-26T07:56:08.826Z,23.85
2017-03-26T07:57:08.871Z,23.75
2017-03-26T07:58:08.916Z,23.36
2017-03-26T07:59:08.970Z,23.47
2017-03-26T08:00:09.005Z,22.9
2017-03-26T08:01:09.054Z,22.41
2017-03-26T08:02:09.100Z,22.13
2017-03-26T08:03:09.146Z,21.47
2017-03-26T08:04:09.192Z,21.47
2017-03-26T08:05:09.241Z,20.7
2017-03-26T08:06:09.284Z,20.61
2017-03-26T08:07:09.333Z,20.42
2017-03-26T08:08:09.379Z,20.32
2017-03-26T08:09:09.424Z,20.14
2017-03-26T08:10:09.474Z,19.84
2017-03-26T08:11:09.523Z,19.55
2017-03-26T08:12:09.573Z,18.88
2017-03-26T08:13:09.614Z,19.16
2017-03-26T08:14:09.661Z,19.26
2017-03-26T08:15:09.709Z,19.26
2017-03-26T08:16:09.758Z,19.54
2017-03-26T08:17:09.953Z,19.44
2017-03-26T08:18:09.850Z,19.63
2017-03-26T08:19:09.903Z,19.35
2017-03-26T08:20:09.949Z,19.06
2017-03-26T08:21:09.992Z,18.76
2017-03-26T08:22:10.047Z,19.06
2017-03-26T08:23:10.095Z,18.58
2017-03-26T08:24:10.139Z,18.29
2017-03-26T08:25:10.189Z,18.1
2017-03-26T08:26:10.235Z,17.71
2017-03-26T08:27:10.280Z,18.09
2017-03-26T08:28:10.332Z,17.78
2017-03-26T08:29:10.384Z,18.44
2017-03-26T08:30:10.422Z,18.52
2017-03-26T08:31:10.479Z,19.19
2017-03-26T08:32:10.526Z,19.19
2017-03-26T08:33:10.571Z,19.1
2017-03-26T08:34:10.614Z,19.1
2017-03-26T08:35:10.666Z,18.52
2017-03-26T08:36:10.713Z,19.1
2017-03-26T08:37:10.757Z,19.2
2017-03-26T08:38:10.807Z,18.73
2017-03-26T08:39:10.865Z,18.92
2017-03-26T08:40:10.950Z,18.93
2017-03-26T08:41:10.949Z,18.55
2017-03-26T08:42:10.995Z,18.45
2017-03-26T08:43:11.044Z,18.73
2017-03-26T08:44:11.156Z,18.33
2017-03-26T08:45:11.139Z,18.89
2017-03-26T08:46:11.193Z,19.07
2017-03-26T08:47:11.538Z,19.35
2017-03-26T08:48:11.287Z,19.84
2017-03-26T08:49:11.336Z,19.84
2017-03-26T08:50:11.710Z,20.03
2017-03-26T08:51:11.427Z,19.75
2017-03-26T08:52:11.482Z,19.46
2017-03-26T08:53:11.529Z,19.46
2017-03-26T08:54:11.574Z,19.74
2017-03-26T08:55:11.634Z,19.93
2017-03-26T08:56:11.670Z,19.83
2017-03-26T08:57:11.720Z,20.13
2017-03-26T08:58:11.769Z,20.03
2017-03-26T08:59:11.826Z,20.23
2017-03-26T09:00:12.163Z,19.55
2017-03-26T09:01:11.914Z,19.84
2017-03-26T09:02:11.960Z,20.13
2017-03-26T09:03:12.010Z,20.23
2017-03-26T09:04:12.075Z,20.03
2017-03-26T09:05:12.105Z,20.03
2017-03-26T09:06:12.155Z,20.03
2017-03-26T09:07:12.207Z,20.13
2017-03-26T09:08:12.253Z,20.13
2017-03-26T09:09:12.302Z,19.46
2017-03-26T09:10:12.575Z,19.18
2017-03-26T09:11:12.404Z,19.09
2017-03-26T09:12:12.453Z,18.71
2017-03-26T09:13:12.804Z,18.71
2017-03-26T09:14:12.551Z,18.52
2017-03-26T09:15:12.605Z,18.43
2017-03-26T09:16:12.649Z,17.66
2017-03-26T09:17:12.701Z,18.25
2017-03-26T09:18:12.748Z,17.96
2017-03-26T09:19:12.805Z,17.97
2017-03-26T09:20:12.854Z,17.58
2017-03-26T09:21:12.900Z,17.38
2017-03-26T09:22:12.950Z,17.38
2017-03-26T09:23:13.005Z,17.18
2017-03-26T09:24:13.053Z,17.38
2017-03-26T09:25:13.108Z,17.38
2017-03-26T09:26:13.156Z,16.61
2017-03-26T09:27:13.209Z,16.41
2017-03-26T09:28:13.257Z,16.6
2017-03-26T09:29:13.311Z,16.88
2017-03-26T09:30:13.362Z,16.39
2017-03-26T09:31:13.412Z,17.06
2017-03-26T09:32:13.462Z,17.24
2017-03-26T09:33:13.516Z,17.24
2017-03-26T09:34:13.569Z,16.96
2017-03-26T09:35:13.617Z,16.96
2017-03-26T09:36:13.673Z,16.96
2017-03-26T09:37:13.721Z,16.48
2017-03-26T09:38:13.776Z,16.58
2017-03-26T09:39:13.830Z,16.59
2017-03-26T09:40:13.876Z,16.01
2017-03-26T09:41:13.946Z,15.62
2017-03-26T09:42:13.986Z,15.62
2017-03-26T09:43:14.031Z,15.52
2017-03-26T09:44:14.098Z,15.81
2017-03-26T09:45:14.138Z,16.3
2017-03-26T09:46:14.193Z,15.72
2017-03-26T09:47:14.243Z,16.49
2017-03-26T09:48:14.604Z,16.39
2017-03-26T09:49:14.356Z,16.58
2017-03-26T09:50:14.412Z,16.39
2017-03-26T09:51:14.458Z,16.78
2017-03-26T09:52:14.529Z,16.39
2017-03-26T09:53:14.563Z,16.19
2017-03-26T09:54:14.615Z,15.81
2017-03-26T09:55:14.671Z,15.8
2017-03-26T09:56:14.725Z,15.7
2017-03-26T09:57:14.776Z,16.28
2017-03-26T09:58:14.845Z,16.18
2017-03-26T09:59:14.999Z,16.37
2017-03-26T10:00:15.238Z,16.28
2017-03-26T10:01:14.988Z,16.37
2017-03-26T10:02:15.049Z,16.56
2017-03-26T10:03:15.105Z,16.56
2017-03-26T10:04:15.152Z,16.56
2017-03-26T10:05:15.199Z,16.38
2017-03-26T10:06:15.259Z,16.38
2017-03-26T10:07:15.313Z,15.7
2017-03-26T10:08:15.366Z,16.28
2017-03-26T10:09:15.424Z,15.89
2017-03-26T10:10:15.483Z,16.57
2017-03-26T10:11:15.531Z,15.51
2017-03-26T10:12:15.584Z,15.99
2017-03-26T10:13:15.636Z,15.69
2017-03-26T10:14:15.694Z,15.69
2017-03-26T10:15:16.046Z,15.21
2017-03-26T10:16:15.804Z,15.59
2017-03-26T10:17:15.853Z,16.08
2017-03-26T10:18:15.908Z,15.98
2017-03-26T10:19:16.267Z,16.27
2017-03-26T10:20:16.018Z,15.88
2017-03-26T10:21:16.070Z,16.36
2017-03-26T10:22:16.121Z,16.54
2017-03-26T10:23:16.546Z,16.24
2017-03-26T10:24:16.236Z,16.62
2017-03-26T10:25:16.291Z,16.99
2017-03-26T10:26:16.360Z,17.28
2017-03-26T10:27:16.398Z,16.99
2017-03-26T10:28:16.450Z,17.27
2017-03-26T10:29:16.508Z,17.63
2017-03-26T10:30:16.555Z,18.21
2017-03-26T10:31:16.614Z,18.5
2017-03-26T10:32:16.666Z,18.6
2017-03-26T10:33:16.724Z,18.88
2017-03-26T10:34:16.775Z,18.99
2017-03-26T10:35:16.880Z,18.62
2017-03-26T10:36:16.887Z,18.42
2017-03-26T10:37:16.935Z,18.42
2017-03-26T10:38:16.991Z,18.41
2017-03-26T10:39:17.049Z,18.21
2017-03-26T10:40:17.097Z,19.07
2017-03-26T10:41:17.153Z,19.07
2017-03-26T10:42:17.207Z,19.06
2017-03-26T10:43:17.261Z,19.45
2017-03-26T10:44:17.312Z,20.11
2017-03-26T10:45:17.364Z,20.2
2017-03-26T10:46:17.421Z,20.2
2017-03-26T10:47:17.471Z,20.47
2017-03-26T10:48:17.525Z,20.94
2017-03-26T10:49:17.574Z,21.41
2017-03-26T10:50:17.630Z,21.7
2017-03-26T10:51:17.681Z,21.88
2017-03-26T10:52:17.737Z,21.89
2017-03-26T10:53:17.789Z,22.08
2017-03-26T10:54:17.835Z,22.38
2017-03-26T10:55:17.890Z,21.82
2017-03-26T10:56:17.940Z,21.53
2017-03-26T10:57:18.005Z,21.72
2017-03-26T10:58:18.048Z,21.92
2017-03-26T10:59:18.402Z,21.83
2017-03-26T11:00:18.153Z,21.83
2017-03-26T11:01:18.204Z,22.22
2017-03-26T11:02:18.256Z,22.12
2017-03-26T11:03:18.309Z,21.54
2017-03-26T11:04:18.357Z,21.44
2017-03-26T11:05:18.410Z,21.25
2017-03-26T11:06:18.459Z,21.53
2017-03-26T11:07:18.516Z,21.62
2017-03-26T11:08:18.581Z,21.92
2017-03-26T11:09:18.611Z,22.11
2017-03-26T11:10:18.664Z,22.01
2017-03-26T11:11:18.718Z,21.62
2017-03-26T11:12:18.791Z,21.62
2017-03-26T11:13:18.815Z,21.34
2017-03-26T11:14:18.870Z,20.57
2017-03-26T11:15:18.914Z,20.95
2017-03-26T11:16:18.969Z,20.37
2017-03-26T11:17:19.018Z,20.45
2017-03-26T11:18:19.070Z,20.73
2017-03-26T11:19:19.122Z,21.58
2017-03-26T11:20:19.165Z,21.77
2017-03-26T11:21:19.214Z,21.67
2017-03-26T11:22:19.266Z,22.05
2017-03-26T11:23:19.314Z,22.33
2017-03-26T11:24:19.361Z,22.24
2017-03-26T11:25:19.404Z,22.71
2017-03-26T11:26:19.450Z,22.71
2017-03-26T11:27:19.503Z,22.71
2017-03-26T11:28:19.546Z,22.71
2017-03-26T11:29:19.593Z,23.1
2017-03-26T11:30:19.641Z,23.57
2017-03-26T11:31:19.689Z,23.48
2017-03-26T11:32:19.734Z,23.49
2017-03-26T11:33:19.778Z,23.3
2017-03-26T11:34:19.826Z,23.01
2017-03-26T11:35:19.870Z,22.74
2017-03-26T11:36:19.914Z,22.83
2017-03-26T11:37:20.269Z,23.21
2017-03-26T11:38:20.312Z,23.22
2017-03-26T11:39:20.060Z,23.61
2017-03-26T11:40:20.102Z,23.03
2017-03-26T11:41:20.148Z,23.22
2017-03-26T11:42:20.188Z,22.17
2017-03-26T11:43:20.543Z,21.78
2017-03-26T11:44:20.279Z,21.39
2017-03-26T11:45:20.327Z,21.28
2017-03-26T11:46:20.370Z,22.04
2017-03-26T11:47:20.418Z,21.66
2017-03-26T11:48:20.461Z,22.13
2017-03-26T11:49:20.508Z,22.7
2017-03-26T11:50:20.547Z,22.5
2017-03-26T11:51:20.587Z,22.5
2017-03-26T11:52:20.636Z,22.4
2017-03-26T11:53:20.683Z,22.69
2017-03-26T11:54:20.722Z,22.7
2017-03-26T11:55:20.759Z,22.69
2017-03-26T11:56:20.803Z,22.61
2017-03-26T11:57:21.157Z,22.8
2017-03-26T11:58:20.893Z,22.78
2017-03-26T11:59:20.934Z,23.07
2017-03-26T12:00:20.975Z,23.46
2017-03-26T12:01:21.019Z,23.36
2017-03-26T12:02:21.061Z,23.07
2017-03-26T12:03:21.105Z,22.61
2017-03-26T12:04:21.146Z,22.11
2017-03-26T12:05:21.190Z,23.07
2017-03-26T12:06:21.231Z,23.35
2017-03-26T12:07:21.274Z,23.25
2017-03-26T12:08:21.312Z,23.25
2017-03-26T12:09:21.365Z,23.05
2017-03-26T12:10:21.396Z,23.43
2017-03-26T12:11:21.737Z,23.62
2017-03-26T12:12:21.476Z,23.82
2017-03-26T12:13:21.521Z,23.91
2017-03-26T12:14:21.558Z,24.09
2017-03-26T12:15:21.602Z,23.72
2017-03-26T12:16:21.645Z,24.29
2017-03-26T12:17:21.686Z,24.29
2017-03-26T12:18:21.727Z,24.29
2017-03-26T12:19:21.768Z,24.01
2017-03-26T12:20:21.800Z,23.82
2017-03-26T12:21:21.850Z,24.1
2017-03-26T12:22:21.884Z,24.19
2017-03-26T12:23:21.931Z,24.29
2017-03-26T12:24:22.267Z,24.48
2017-03-26T12:25:22.008Z,24.66
2017-03-26T12:26:22.048Z,24.66
2017-03-26T12:27:22.090Z,24.95
2017-03-26T12:28:22.126Z,24.95
2017-03-26T12:29:22.169Z,24.85
2017-03-26T12:30:22.208Z,25.06
2017-03-26T12:31:22.247Z,24.96
2017-03-26T12:32:22.284Z,25.06
2017-03-26T12:33:22.328Z,24.96
2017-03-26T12:34:22.370Z,24.96
2017-03-26T12:35:22.406Z,25.15
2017-03-26T12:36:22.444Z,24.96
2017-03-26T12:37:22.488Z,24.98
2017-03-26T12:38:22.528Z,24.88
2017-03-26T12:39:22.571Z,24.98
2017-03-26T12:40:22.606Z,24.59
2017-03-26T12:41:22.649Z,24.79
2017-03-26T12:42:22.687Z,24.98
2017-03-26T12:43:22.728Z,25.36
2017-03-26T12:44:22.779Z,25.07
2017-03-26T12:45:22.809Z,24.88
2017-03-26T12:46:22.849Z,24.59
2017-03-26T12:47:22.887Z,24.79
2017-03-26T12:48:22.929Z,24.69
2017-03-26T12:49:23.270Z,24.58
2017-03-26T12:50:23.008Z,24.96
2017-03-26T12:51:23.049Z,25.15
2017-03-26T12:52:23.088Z,25.06
2017-03-26T12:53:23.126Z,24.87
2017-03-26T12:54:23.169Z,24.96
2017-03-26T12:55:23.207Z,25.15
2017-03-26T12:56:23.248Z,25.15